sensor_id;sensor_type;location;lat;lon;timestamp;P1;durP1;ratioP1;P2;durP2;ratioP2
70450;SDS011;58869;51.982;4.450;2022-09-17T00:00:42;5.03;;;2.91;;
70450;SDS011;58869;51.982;4.450;2022-09-17T00:03:07;5.47;;;3.21;;
70450;SDS011;58869;51.982;4.450;2022-09-17T00:05:34;5.32;;;3.12;;
70450;SDS011;58869;51.982;4.450;2022-09-17T00:08:04;4.96;;;2.92;;
70450;SDS011;58869;51.982;4.450;2022-09-17T00:10:32;5.01;;;2.96;;
70450;SDS011;58869;51.982;4.450;2022-09-17T00:13:03;6.45;;;3.79;;
70450;SDS011;58869;51.982;4.450;2022-09-17T00:15:28;5.80;;;3.41;;
70450;SDS011;58869;51.982;4.450;2022-09-17T00:17:55;6.82;;;4.00;;
70450;SDS011;58869;51.982;4.450;2022-09-17T00:20:26;5.43;;;3.21;;
70450;SDS011;58869;51.982;4.450;2022-09-17T00:22:52;5.95;;;3.48;;
70450;SDS011;58869;51.982;4.450;2022-09-17T00:25:18;5.41;;;3.16;;
70450;SDS011;58869;51.982;4.450;2022-09-17T00:27:44;5.05;;;2.93;;
70450;SDS011;58869;51.982;4.450;2022-09-17T00:30:11;5.73;;;3.32;;
70450;SDS011;58869;51.982;4.450;2022-09-17T00:32:37;6.54;;;3.82;;
70450;SDS011;58869;51.982;4.450;2022-09-17T00:35:02;6.96;;;4.07;;
70450;SDS011;58869;51.982;4.450;2022-09-17T00:37:28;6.60;;;3.87;;
70450;SDS011;58869;51.982;4.450;2022-09-17T00:39:54;7.45;;;4.37;;
70450;SDS011;58869;51.982;4.450;2022-09-17T00:42:19;7.35;;;4.29;;
70450;SDS011;58869;51.982;4.450;2022-09-17T00:44:53;7.51;;;4.36;;
70450;SDS011;58869;51.982;4.450;2022-09-17T00:47:26;8.08;;;4.68;;
70450;SDS011;58869;51.982;4.450;2022-09-17T00:50:03;8.28;;;4.81;;
70450;SDS011;58869;51.982;4.450;2022-09-17T00:52:35;8.10;;;4.68;;
70450;SDS011;58869;51.982;4.450;2022-09-17T00:55:27;8.82;;;5.08;;
70450;SDS011;58869;51.982;4.450;2022-09-17T00:58:05;7.63;;;4.47;;
70450;SDS011;58869;51.982;4.450;2022-09-17T01:00:32;7.53;;;4.40;;
70450;SDS011;58869;51.982;4.450;2022-09-17T01:02:58;7.56;;;4.40;;
70450;SDS011;58869;51.982;4.450;2022-09-17T01:05:38;7.82;;;4.60;;
70450;SDS011;58869;51.982;4.450;2022-09-17T01:11:06;7.06;;;4.17;;
70450;SDS011;58869;51.982;4.450;2022-09-17T01:14:01;7.82;;;4.62;;
70450;SDS011;58869;51.982;4.450;2022-09-17T01:16:50;6.22;;;3.67;;
70450;SDS011;58869;51.982;4.450;2022-09-17T01:22:26;7.46;;;4.40;;
70450;SDS011;58869;51.982;4.450;2022-09-17T01:30:15;7.39;;;4.41;;
70450;SDS011;58869;51.982;4.450;2022-09-17T01:46:38;6.61;;;3.88;;
70450;SDS011;58869;51.982;4.450;2022-09-17T01:49:32;6.69;;;3.94;;
70450;SDS011;58869;51.982;4.450;2022-09-17T01:52:02;7.31;;;4.28;;
70450;SDS011;58869;51.982;4.450;2022-09-17T01:54:33;7.44;;;4.37;;
70450;SDS011;58869;51.982;4.450;2022-09-17T01:57:09;7.18;;;4.19;;
70450;SDS011;58869;51.982;4.450;2022-09-17T01:59:42;7.39;;;4.30;;
70450;SDS011;58869;51.982;4.450;2022-09-17T02:02:58;8.20;;;4.84;;
70450;SDS011;58869;51.982;4.450;2022-09-17T02:05:10;6.80;;;4.07;;
70450;SDS011;58869;51.982;4.450;2022-09-17T02:07:43;8.23;;;4.89;;
70450;SDS011;58869;51.982;4.450;2022-09-17T02:10:36;7.74;;;4.59;;
70450;SDS011;58869;51.982;4.450;2022-09-17T02:13:07;8.01;;;4.69;;
70450;SDS011;58869;51.982;4.450;2022-09-17T02:15:39;7.92;;;4.64;;
70450;SDS011;58869;51.982;4.450;2022-09-17T02:18:13;6.72;;;3.94;;
70450;SDS011;58869;51.982;4.450;2022-09-17T02:21:55;7.94;;;4.70;;
70450;SDS011;58869;51.982;4.450;2022-09-17T02:27:12;6.85;;;4.06;;
70450;SDS011;58869;51.982;4.450;2022-09-17T02:29:44;6.94;;;4.14;;
70450;SDS011;58869;51.982;4.450;2022-09-17T02:32:10;7.02;;;4.16;;
70450;SDS011;58869;51.982;4.450;2022-09-17T02:34:37;7.04;;;4.17;;
70450;SDS011;58869;51.982;4.450;2022-09-17T02:37:03;6.67;;;3.93;;
70450;SDS011;58869;51.982;4.450;2022-09-17T02:39:33;6.28;;;3.69;;
70450;SDS011;58869;51.982;4.450;2022-09-17T02:42:04;6.77;;;4.00;;
70450;SDS011;58869;51.982;4.450;2022-09-17T02:45:05;6.32;;;3.75;;
70450;SDS011;58869;51.982;4.450;2022-09-17T03:01:06;6.56;;;3.89;;
70450;SDS011;58869;51.982;4.450;2022-09-17T03:03:40;6.29;;;3.72;;
70450;SDS011;58869;51.982;4.450;2022-09-17T03:06:08;6.86;;;4.07;;
70450;SDS011;58869;51.982;4.450;2022-09-17T03:08:35;7.06;;;4.16;;
70450;SDS011;58869;51.982;4.450;2022-09-17T03:11:04;8.50;;;4.95;;
70450;SDS011;58869;51.982;4.450;2022-09-17T03:13:30;7.83;;;4.63;;
70450;SDS011;58869;51.982;4.450;2022-09-17T03:15:56;7.52;;;4.46;;
70450;SDS011;58869;51.982;4.450;2022-09-17T03:18:22;6.40;;;3.74;;
70450;SDS011;58869;51.982;4.450;2022-09-17T03:20:47;8.28;;;4.82;;
70450;SDS011;58869;51.982;4.450;2022-09-17T03:23:13;7.43;;;4.34;;
70450;SDS011;58869;51.982;4.450;2022-09-17T03:25:38;8.09;;;4.74;;
70450;SDS011;58869;51.982;4.450;2022-09-17T03:28:04;6.78;;;3.95;;
70450;SDS011;58869;51.982;4.450;2022-09-17T03:30:29;6.12;;;3.61;;
70450;SDS011;58869;51.982;4.450;2022-09-17T03:32:55;5.92;;;3.49;;
70450;SDS011;58869;51.982;4.450;2022-09-17T03:35:21;5.96;;;3.54;;
70450;SDS011;58869;51.982;4.450;2022-09-17T03:37:46;6.65;;;3.91;;
70450;SDS011;58869;51.982;4.450;2022-09-17T03:40:11;5.25;;;3.08;;
70450;SDS011;58869;51.982;4.450;2022-09-17T03:42:37;5.06;;;2.97;;
70450;SDS011;58869;51.982;4.450;2022-09-17T03:45:02;5.56;;;3.26;;
70450;SDS011;58869;51.982;4.450;2022-09-17T03:47:28;4.76;;;2.79;;
70450;SDS011;58869;51.982;4.450;2022-09-17T03:49:54;5.67;;;3.34;;
70450;SDS011;58869;51.982;4.450;2022-09-17T03:52:20;5.41;;;3.20;;
70450;SDS011;58869;51.982;4.450;2022-09-17T03:54:46;4.18;;;2.46;;
70450;SDS011;58869;51.982;4.450;2022-09-17T03:57:11;4.56;;;2.69;;
70450;SDS011;58869;51.982;4.450;2022-09-17T03:59:36;4.57;;;2.72;;
70450;SDS011;58869;51.982;4.450;2022-09-17T04:02:02;4.68;;;2.78;;
70450;SDS011;58869;51.982;4.450;2022-09-17T04:04:27;4.35;;;2.59;;
70450;SDS011;58869;51.982;4.450;2022-09-17T04:06:53;4.20;;;2.48;;
70450;SDS011;58869;51.982;4.450;2022-09-17T04:09:19;5.13;;;3.03;;
70450;SDS011;58869;51.982;4.450;2022-09-17T04:11:44;5.50;;;3.20;;
70450;SDS011;58869;51.982;4.450;2022-09-17T04:14:10;5.39;;;3.14;;
70450;SDS011;58869;51.982;4.450;2022-09-17T04:16:36;5.60;;;3.26;;
70450;SDS011;58869;51.982;4.450;2022-09-17T04:19:01;5.71;;;3.32;;
70450;SDS011;58869;51.982;4.450;2022-09-17T04:21:26;4.70;;;2.72;;
70450;SDS011;58869;51.982;4.450;2022-09-17T04:23:52;5.08;;;2.94;;
70450;SDS011;58869;51.982;4.450;2022-09-17T04:26:17;5.43;;;3.15;;
70450;SDS011;58869;51.982;4.450;2022-09-17T04:28:43;4.76;;;2.78;;
70450;SDS011;58869;51.982;4.450;2022-09-17T04:31:08;4.38;;;2.57;;
70450;SDS011;58869;51.982;4.450;2022-09-17T04:33:34;4.84;;;2.84;;
70450;SDS011;58869;51.982;4.450;2022-09-17T04:36:00;4.86;;;2.88;;
70450;SDS011;58869;51.982;4.450;2022-09-17T04:38:26;4.41;;;2.63;;
70450;SDS011;58869;51.982;4.450;2022-09-17T04:40:51;3.84;;;2.29;;
70450;SDS011;58869;51.982;4.450;2022-09-17T04:43:18;5.68;;;3.35;;
70450;SDS011;58869;51.982;4.450;2022-09-17T04:45:45;5.90;;;3.44;;
70450;SDS011;58869;51.982;4.450;2022-09-17T04:48:11;4.68;;;2.73;;
70450;SDS011;58869;51.982;4.450;2022-09-17T04:50:37;4.42;;;2.58;;
70450;SDS011;58869;51.982;4.450;2022-09-17T04:53:02;4.92;;;2.88;;
70450;SDS011;58869;51.982;4.450;2022-09-17T04:55:28;4.96;;;2.90;;
70450;SDS011;58869;51.982;4.450;2022-09-17T04:57:53;5.19;;;3.01;;
70450;SDS011;58869;51.982;4.450;2022-09-17T05:00:19;5.10;;;2.95;;
70450;SDS011;58869;51.982;4.450;2022-09-17T05:02:47;5.45;;;3.16;;
70450;SDS011;58869;51.982;4.450;2022-09-17T05:05:14;4.52;;;2.62;;
70450;SDS011;58869;51.982;4.450;2022-09-17T05:07:41;5.15;;;2.97;;
70450;SDS011;58869;51.982;4.450;2022-09-17T05:10:07;5.64;;;3.24;;
70450;SDS011;58869;51.982;4.450;2022-09-17T05:12:33;4.74;;;2.73;;
70450;SDS011;58869;51.982;4.450;2022-09-17T05:14:59;5.10;;;2.93;;
70450;SDS011;58869;51.982;4.450;2022-09-17T05:17:24;4.18;;;2.41;;
70450;SDS011;58869;51.982;4.450;2022-09-17T05:19:49;4.98;;;2.88;;
70450;SDS011;58869;51.982;4.450;2022-09-17T05:22:17;5.14;;;2.99;;
70450;SDS011;58869;51.982;4.450;2022-09-17T05:24:43;4.90;;;2.89;;
70450;SDS011;58869;51.982;4.450;2022-09-17T05:27:10;4.61;;;2.73;;
70450;SDS011;58869;51.982;4.450;2022-09-17T05:29:36;4.33;;;2.55;;
70450;SDS011;58869;51.982;4.450;2022-09-17T05:32:04;4.61;;;2.72;;
70450;SDS011;58869;51.982;4.450;2022-09-17T05:34:29;4.59;;;2.71;;
70450;SDS011;58869;51.982;4.450;2022-09-17T05:36:58;4.00;;;2.37;;
70450;SDS011;58869;51.982;4.450;2022-09-17T05:39:23;4.36;;;2.60;;
70450;SDS011;58869;51.982;4.450;2022-09-17T05:41:53;3.81;;;2.27;;
70450;SDS011;58869;51.982;4.450;2022-09-17T05:44:19;4.46;;;2.65;;
70450;SDS011;58869;51.982;4.450;2022-09-17T05:46:45;3.71;;;2.20;;
70450;SDS011;58869;51.982;4.450;2022-09-17T05:49:11;4.50;;;2.67;;
70450;SDS011;58869;51.982;4.450;2022-09-17T05:51:39;4.41;;;2.58;;
70450;SDS011;58869;51.982;4.450;2022-09-17T05:54:07;3.69;;;2.18;;
70450;SDS011;58869;51.982;4.450;2022-09-17T05:56:33;3.55;;;2.12;;
70450;SDS011;58869;51.982;4.450;2022-09-17T05:58:59;4.13;;;2.46;;
70450;SDS011;58869;51.982;4.450;2022-09-17T06:01:24;3.35;;;1.97;;
70450;SDS011;58869;51.982;4.450;2022-09-17T06:03:50;3.03;;;1.79;;
70450;SDS011;58869;51.982;4.450;2022-09-17T06:06:16;3.12;;;1.85;;
70450;SDS011;58869;51.982;4.450;2022-09-17T06:08:41;3.70;;;2.19;;
70450;SDS011;58869;51.982;4.450;2022-09-17T06:11:07;4.73;;;2.82;;
70450;SDS011;58869;51.982;4.450;2022-09-17T06:13:33;4.60;;;2.75;;
70450;SDS011;58869;51.982;4.450;2022-09-17T06:15:59;3.86;;;2.29;;
70450;SDS011;58869;51.982;4.450;2022-09-17T06:18:26;4.74;;;2.80;;
70450;SDS011;58869;51.982;4.450;2022-09-17T06:20:53;4.45;;;2.63;;
70450;SDS011;58869;51.982;4.450;2022-09-17T06:23:24;5.38;;;3.17;;
70450;SDS011;58869;51.982;4.450;2022-09-17T06:25:51;4.88;;;2.86;;
70450;SDS011;58869;51.982;4.450;2022-09-17T06:28:17;5.05;;;2.96;;
70450;SDS011;58869;51.982;4.450;2022-09-17T06:30:43;5.15;;;3.04;;
70450;SDS011;58869;51.982;4.450;2022-09-17T06:33:08;5.11;;;3.00;;
70450;SDS011;58869;51.982;4.450;2022-09-17T06:35:34;6.05;;;3.51;;
70450;SDS011;58869;51.982;4.450;2022-09-17T06:37:59;5.06;;;2.97;;
70450;SDS011;58869;51.982;4.450;2022-09-17T06:40:28;6.06;;;3.58;;
70450;SDS011;58869;51.982;4.450;2022-09-17T06:42:57;4.53;;;2.74;;
70450;SDS011;58869;51.982;4.450;2022-09-17T06:45:24;4.16;;;2.54;;
70450;SDS011;58869;51.982;4.450;2022-09-17T06:47:50;4.75;;;2.90;;
70450;SDS011;58869;51.982;4.450;2022-09-17T06:50:15;4.48;;;2.72;;
70450;SDS011;58869;51.982;4.450;2022-09-17T06:52:50;5.24;;;3.15;;
70450;SDS011;58869;51.982;4.450;2022-09-17T06:55:18;5.78;;;3.45;;
70450;SDS011;58869;51.982;4.450;2022-09-17T06:57:44;4.89;;;2.94;;
70450;SDS011;58869;51.982;4.450;2022-09-17T07:00:10;4.94;;;2.99;;
70450;SDS011;58869;51.982;4.450;2022-09-17T07:02:36;4.06;;;2.44;;
70450;SDS011;58869;51.982;4.450;2022-09-17T07:05:02;4.90;;;2.91;;
70450;SDS011;58869;51.982;4.450;2022-09-17T07:07:29;4.87;;;2.88;;
70450;SDS011;58869;51.982;4.450;2022-09-17T07:09:54;5.31;;;3.13;;
70450;SDS011;58869;51.982;4.450;2022-09-17T07:12:20;6.07;;;3.58;;
70450;SDS011;58869;51.982;4.450;2022-09-17T07:14:46;4.89;;;2.88;;
70450;SDS011;58869;51.982;4.450;2022-09-17T07:17:12;5.45;;;3.20;;
70450;SDS011;58869;51.982;4.450;2022-09-17T07:19:40;6.37;;;3.71;;
70450;SDS011;58869;51.982;4.450;2022-09-17T07:22:06;5.72;;;3.39;;
70450;SDS011;58869;51.982;4.450;2022-09-17T07:24:32;5.19;;;3.09;;
70450;SDS011;58869;51.982;4.450;2022-09-17T07:26:58;5.46;;;3.26;;
70450;SDS011;58869;51.982;4.450;2022-09-17T07:29:25;5.33;;;3.21;;
70450;SDS011;58869;51.982;4.450;2022-09-17T07:31:52;5.41;;;3.24;;
70450;SDS011;58869;51.982;4.450;2022-09-17T07:34:17;4.46;;;2.69;;
70450;SDS011;58869;51.982;4.450;2022-09-17T07:36:43;3.59;;;2.20;;
70450;SDS011;58869;51.982;4.450;2022-09-17T07:39:09;2.79;;;1.72;;
70450;SDS011;58869;51.982;4.450;2022-09-17T07:41:37;2.55;;;1.58;;
70450;SDS011;58869;51.982;4.450;2022-09-17T07:44:03;2.85;;;1.74;;
70450;SDS011;58869;51.982;4.450;2022-09-17T07:46:28;3.17;;;1.93;;
70450;SDS011;58869;51.982;4.450;2022-09-17T07:48:54;4.02;;;2.43;;
70450;SDS011;58869;51.982;4.450;2022-09-17T07:51:20;4.05;;;2.45;;
70450;SDS011;58869;51.982;4.450;2022-09-17T07:53:54;4.22;;;2.54;;
70450;SDS011;58869;51.982;4.450;2022-09-17T07:56:22;4.30;;;2.56;;
70450;SDS011;58869;51.982;4.450;2022-09-17T07:58:49;4.96;;;2.93;;
70450;SDS011;58869;51.982;4.450;2022-09-17T08:01:16;3.28;;;1.93;;
70450;SDS011;58869;51.982;4.450;2022-09-17T08:03:42;2.80;;;1.65;;
70450;SDS011;58869;51.982;4.450;2022-09-17T08:06:12;2.79;;;1.66;;
70450;SDS011;58869;51.982;4.450;2022-09-17T08:08:39;2.90;;;1.72;;
70450;SDS011;58869;51.982;4.450;2022-09-17T08:11:06;2.63;;;1.57;;
70450;SDS011;58869;51.982;4.450;2022-09-17T08:13:35;2.21;;;1.31;;
70450;SDS011;58869;51.982;4.450;2022-09-17T08:16:06;2.31;;;1.37;;
70450;SDS011;58869;51.982;4.450;2022-09-17T08:18:33;2.14;;;1.28;;
70450;SDS011;58869;51.982;4.450;2022-09-17T08:21:00;2.06;;;1.23;;
70450;SDS011;58869;51.982;4.450;2022-09-17T08:23:28;2.07;;;1.25;;
70450;SDS011;58869;51.982;4.450;2022-09-17T08:25:55;2.52;;;1.53;;
70450;SDS011;58869;51.982;4.450;2022-09-17T08:28:22;3.82;;;2.31;;
70450;SDS011;58869;51.982;4.450;2022-09-17T08:30:49;3.15;;;1.88;;
70450;SDS011;58869;51.982;4.450;2022-09-17T08:33:15;3.06;;;1.82;;
70450;SDS011;58869;51.982;4.450;2022-09-17T08:35:42;3.01;;;1.79;;
70450;SDS011;58869;51.982;4.450;2022-09-17T08:38:17;3.19;;;1.92;;
70450;SDS011;58869;51.982;4.450;2022-09-17T08:40:46;3.05;;;1.84;;
70450;SDS011;58869;51.982;4.450;2022-09-17T08:43:27;3.17;;;1.91;;
70450;SDS011;58869;51.982;4.450;2022-09-17T08:45:55;3.73;;;2.23;;
70450;SDS011;58869;51.982;4.450;2022-09-17T08:48:24;3.80;;;2.25;;
70450;SDS011;58869;51.982;4.450;2022-09-17T08:50:58;3.10;;;1.86;;
70450;SDS011;58869;51.982;4.450;2022-09-17T08:53:42;2.26;;;1.36;;
70450;SDS011;58869;51.982;4.450;2022-09-17T08:56:29;2.69;;;1.62;;
70450;SDS011;58869;51.982;4.450;2022-09-17T09:01:50;3.00;;;1.80;;
70450;SDS011;58869;51.982;4.450;2022-09-17T09:07:17;3.37;;;2.00;;
70450;SDS011;58869;51.982;4.450;2022-09-17T09:09:50;2.88;;;1.71;;
70450;SDS011;58869;51.982;4.450;2022-09-17T09:12:30;2.89;;;1.71;;
70450;SDS011;58869;51.982;4.450;2022-09-17T09:15:00;3.09;;;1.82;;
70450;SDS011;58869;51.982;4.450;2022-09-17T09:17:32;2.99;;;1.76;;
70450;SDS011;58869;51.982;4.450;2022-09-17T09:20:03;2.91;;;1.71;;
70450;SDS011;58869;51.982;4.450;2022-09-17T09:22:42;2.40;;;1.41;;
70450;SDS011;58869;51.982;4.450;2022-09-17T09:30:29;3.03;;;1.77;;
70450;SDS011;58869;51.982;4.450;2022-09-17T09:33:32;3.26;;;1.93;;
70450;SDS011;58869;51.982;4.450;2022-09-17T09:36:03;2.53;;;1.50;;
70450;SDS011;58869;51.982;4.450;2022-09-17T09:38:32;2.07;;;1.24;;
70450;SDS011;58869;51.982;4.450;2022-09-17T09:43:46;2.79;;;1.67;;
70450;SDS011;58869;51.982;4.450;2022-09-17T09:57:45;3.78;;;2.23;;
70450;SDS011;58869;51.982;4.450;2022-09-17T10:00:22;4.23;;;2.47;;
70450;SDS011;58869;51.982;4.450;2022-09-17T10:06:00;4.60;;;2.70;;
70450;SDS011;58869;51.982;4.450;2022-09-17T10:08:28;5.29;;;3.10;;
70450;SDS011;58869;51.982;4.450;2022-09-17T10:11:06;5.32;;;3.11;;
70450;SDS011;58869;51.982;4.450;2022-09-17T10:13:52;4.95;;;2.94;;
70450;SDS011;58869;51.982;4.450;2022-09-17T10:17:09;5.82;;;3.42;;
70450;SDS011;58869;51.982;4.450;2022-09-17T10:24:54;7.71;;;4.51;;
70450;SDS011;58869;51.982;4.450;2022-09-17T10:27:23;9.31;;;5.47;;
70450;SDS011;58869;51.982;4.450;2022-09-17T10:32:34;7.49;;;4.38;;
70450;SDS011;58869;51.982;4.450;2022-09-17T10:37:32;6.78;;;3.98;;
70450;SDS011;58869;51.982;4.450;2022-09-17T10:40:00;6.64;;;3.95;;
70450;SDS011;58869;51.982;4.450;2022-09-17T10:42:26;6.69;;;3.96;;
70450;SDS011;58869;51.982;4.450;2022-09-17T10:44:52;7.07;;;4.14;;
70450;SDS011;58869;51.982;4.450;2022-09-17T10:49:56;6.57;;;3.87;;
70450;SDS011;58869;51.982;4.450;2022-09-17T10:52:45;7.62;;;4.52;;
70450;SDS011;58869;51.982;4.450;2022-09-17T10:55:32;7.18;;;4.21;;
70450;SDS011;58869;51.982;4.450;2022-09-17T10:58:10;6.01;;;3.54;;
70450;SDS011;58869;51.982;4.450;2022-09-17T11:09:13;7.30;;;4.36;;
70450;SDS011;58869;51.982;4.450;2022-09-17T11:23:52;4.96;;;2.98;;
70450;SDS011;58869;51.982;4.450;2022-09-17T11:26:48;6.48;;;3.84;;
70450;SDS011;58869;51.982;4.450;2022-09-17T11:29:25;5.94;;;3.53;;
70450;SDS011;58869;51.982;4.450;2022-09-17T11:35:06;6.80;;;4.05;;
70450;SDS011;58869;51.982;4.450;2022-09-17T11:40:31;6.06;;;3.64;;
70450;SDS011;58869;51.982;4.450;2022-09-17T11:43:13;6.00;;;3.62;;
70450;SDS011;58869;51.982;4.450;2022-09-17T11:52:08;5.74;;;3.42;;
70450;SDS011;58869;51.982;4.450;2022-09-17T11:54:37;6.47;;;3.87;;
70450;SDS011;58869;51.982;4.450;2022-09-17T11:57:12;7.19;;;4.25;;
70450;SDS011;58869;51.982;4.450;2022-09-17T12:02:29;8.12;;;4.72;;
70450;SDS011;58869;51.982;4.450;2022-09-17T12:05:04;7.85;;;4.58;;
70450;SDS011;58869;51.982;4.450;2022-09-17T12:07:53;7.57;;;4.46;;
70450;SDS011;58869;51.982;4.450;2022-09-17T12:10:31;6.83;;;4.04;;
70450;SDS011;58869;51.982;4.450;2022-09-17T12:13:26;7.19;;;4.27;;
70450;SDS011;58869;51.982;4.450;2022-09-17T12:16:40;7.32;;;4.34;;
70450;SDS011;58869;51.982;4.450;2022-09-17T12:18:50;8.33;;;4.94;;
70450;SDS011;58869;51.982;4.450;2022-09-17T12:21:40;7.77;;;4.59;;
70450;SDS011;58869;51.982;4.450;2022-09-17T12:24:28;8.16;;;4.87;;
70450;SDS011;58869;51.982;4.450;2022-09-17T12:29:42;6.29;;;3.81;;
70450;SDS011;58869;51.982;4.450;2022-09-17T12:42:32;4.75;;;2.90;;
70450;SDS011;58869;51.982;4.450;2022-09-17T12:45:08;5.01;;;3.03;;
70450;SDS011;58869;51.982;4.450;2022-09-17T12:50:57;5.04;;;3.05;;
70450;SDS011;58869;51.982;4.450;2022-09-17T12:53:43;4.95;;;2.99;;
70450;SDS011;58869;51.982;4.450;2022-09-17T12:59:14;5.48;;;3.29;;
70450;SDS011;58869;51.982;4.450;2022-09-17T13:04:39;5.17;;;3.14;;
70450;SDS011;58869;51.982;4.450;2022-09-17T13:15:38;5.30;;;3.23;;
70450;SDS011;58869;51.982;4.450;2022-09-17T13:18:26;5.21;;;3.18;;
70450;SDS011;58869;51.982;4.450;2022-09-17T13:24:16;5.62;;;3.39;;
70450;SDS011;58869;51.982;4.450;2022-09-17T13:26:44;6.07;;;3.62;;
70450;SDS011;58869;51.982;4.450;2022-09-17T13:29:11;5.53;;;3.34;;
70450;SDS011;58869;51.982;4.450;2022-09-17T13:42:01;5.36;;;3.26;;
70450;SDS011;58869;51.982;4.450;2022-09-17T13:44:34;5.95;;;3.62;;
70450;SDS011;58869;51.982;4.450;2022-09-17T13:47:08;5.43;;;3.30;;
70450;SDS011;58869;51.982;4.450;2022-09-17T13:49:42;5.51;;;3.39;;
70450;SDS011;58869;51.982;4.450;2022-09-17T13:52:10;5.44;;;3.36;;
70450;SDS011;58869;51.982;4.450;2022-09-17T13:54:36;7.09;;;4.29;;
70450;SDS011;58869;51.982;4.450;2022-09-17T13:57:04;6.28;;;3.77;;
70450;SDS011;58869;51.982;4.450;2022-09-17T13:59:33;7.24;;;4.29;;
70450;SDS011;58869;51.982;4.450;2022-09-17T14:18:36;6.86;;;4.06;;
70450;SDS011;58869;51.982;4.450;2022-09-17T14:21:08;6.89;;;4.09;;
70450;SDS011;58869;51.982;4.450;2022-09-17T14:23:45;6.40;;;3.81;;
70450;SDS011;58869;51.982;4.450;2022-09-17T14:26:17;6.20;;;3.69;;
70450;SDS011;58869;51.982;4.450;2022-09-17T14:28:55;6.21;;;3.72;;
70450;SDS011;58869;51.982;4.450;2022-09-17T14:31:47;6.00;;;3.59;;
70450;SDS011;58869;51.982;4.450;2022-09-17T14:34:19;5.84;;;3.50;;
70450;SDS011;58869;51.982;4.450;2022-09-17T14:36:46;4.64;;;2.81;;
70450;SDS011;58869;51.982;4.450;2022-09-17T14:39:23;4.68;;;2.83;;
70450;SDS011;58869;51.982;4.450;2022-09-17T14:41:53;4.07;;;2.43;;
70450;SDS011;58869;51.982;4.450;2022-09-17T14:44:20;5.04;;;2.97;;
70450;SDS011;58869;51.982;4.450;2022-09-17T14:46:57;4.76;;;2.84;;
70450;SDS011;58869;51.982;4.450;2022-09-17T14:49:27;4.97;;;2.97;;
70450;SDS011;58869;51.982;4.450;2022-09-17T14:51:55;4.53;;;2.73;;
70450;SDS011;58869;51.982;4.450;2022-09-17T14:54:28;5.49;;;3.31;;
70450;SDS011;58869;51.982;4.450;2022-09-17T14:57:01;5.51;;;3.30;;
70450;SDS011;58869;51.982;4.450;2022-09-17T14:59:37;5.08;;;3.07;;
70450;SDS011;58869;51.982;4.450;2022-09-17T15:02:26;6.30;;;3.81;;
70450;SDS011;58869;51.982;4.450;2022-09-17T15:04:56;5.43;;;3.31;;
70450;SDS011;58869;51.982;4.450;2022-09-17T15:07:23;5.86;;;3.58;;
70450;SDS011;58869;51.982;4.450;2022-09-17T15:09:49;5.77;;;3.49;;
70450;SDS011;58869;51.982;4.450;2022-09-17T15:12:20;5.96;;;3.52;;
70450;SDS011;58869;51.982;4.450;2022-09-17T15:14:50;5.89;;;3.50;;
70450;SDS011;58869;51.982;4.450;2022-09-17T15:17:18;5.38;;;3.24;;
70450;SDS011;58869;51.982;4.450;2022-09-17T15:19:47;6.87;;;4.14;;
70450;SDS011;58869;51.982;4.450;2022-09-17T15:22:24;7.54;;;4.51;;
70450;SDS011;58869;51.982;4.450;2022-09-17T15:24:58;5.82;;;3.48;;
70450;SDS011;58869;51.982;4.450;2022-09-17T15:29:55;6.37;;;3.83;;
70450;SDS011;58869;51.982;4.450;2022-09-17T15:32:23;6.55;;;3.92;;
70450;SDS011;58869;51.982;4.450;2022-09-17T15:37:43;4.55;;;2.82;;
70450;SDS011;58869;51.982;4.450;2022-09-17T15:43:20;5.45;;;3.38;;
70450;SDS011;58869;51.982;4.450;2022-09-17T15:45:54;5.65;;;3.49;;
70450;SDS011;58869;51.982;4.450;2022-09-17T15:50:58;5.87;;;3.60;;
70450;SDS011;58869;51.982;4.450;2022-09-17T15:53:28;6.03;;;3.74;;
70450;SDS011;58869;51.982;4.450;2022-09-17T15:58:33;5.73;;;3.66;;
70450;SDS011;58869;51.982;4.450;2022-09-17T16:08:43;4.02;;;2.57;;
70450;SDS011;58869;51.982;4.450;2022-09-17T16:11:13;3.89;;;2.50;;
70450;SDS011;58869;51.982;4.450;2022-09-17T16:13:39;3.68;;;2.39;;
70450;SDS011;58869;51.982;4.450;2022-09-17T16:16:05;3.72;;;2.44;;
70450;SDS011;58869;51.982;4.450;2022-09-17T16:18:31;3.27;;;2.13;;
70450;SDS011;58869;51.982;4.450;2022-09-17T16:20:56;3.35;;;2.17;;
70450;SDS011;58869;51.982;4.450;2022-09-17T16:23:22;3.22;;;2.10;;
70450;SDS011;58869;51.982;4.450;2022-09-17T16:25:47;3.35;;;2.17;;
70450;SDS011;58869;51.982;4.450;2022-09-17T16:28:15;3.71;;;2.37;;
70450;SDS011;58869;51.982;4.450;2022-09-17T16:30:44;3.64;;;2.34;;
70450;SDS011;58869;51.982;4.450;2022-09-17T16:33:13;3.44;;;2.21;;
70450;SDS011;58869;51.982;4.450;2022-09-17T16:35:40;3.38;;;2.15;;
70450;SDS011;58869;51.982;4.450;2022-09-17T16:38:07;3.70;;;2.34;;
70450;SDS011;58869;51.982;4.450;2022-09-17T16:40:34;3.58;;;2.26;;
70450;SDS011;58869;51.982;4.450;2022-09-17T16:43:07;4.15;;;2.62;;
70450;SDS011;58869;51.982;4.450;2022-09-17T16:45:33;4.31;;;2.76;;
70450;SDS011;58869;51.982;4.450;2022-09-17T16:47:59;3.69;;;2.37;;
70450;SDS011;58869;51.982;4.450;2022-09-17T16:50:25;3.66;;;2.32;;
70450;SDS011;58869;51.982;4.450;2022-09-17T16:52:51;3.56;;;2.26;;
70450;SDS011;58869;51.982;4.450;2022-09-17T16:55:17;4.10;;;2.59;;
70450;SDS011;58869;51.982;4.450;2022-09-17T16:57:44;3.11;;;1.95;;
70450;SDS011;58869;51.982;4.450;2022-09-17T17:00:10;3.15;;;2.02;;
70450;SDS011;58869;51.982;4.450;2022-09-17T17:02:40;2.87;;;1.87;;
70450;SDS011;58869;51.982;4.450;2022-09-17T17:05:06;2.93;;;1.91;;
70450;SDS011;58869;51.982;4.450;2022-09-17T17:07:34;3.20;;;2.07;;
70450;SDS011;58869;51.982;4.450;2022-09-17T17:10:00;3.42;;;2.21;;
70450;SDS011;58869;51.982;4.450;2022-09-17T17:12:26;3.02;;;1.95;;
70450;SDS011;58869;51.982;4.450;2022-09-17T17:14:51;2.45;;;1.58;;
70450;SDS011;58869;51.982;4.450;2022-09-17T17:17:18;2.49;;;1.62;;
70450;SDS011;58869;51.982;4.450;2022-09-17T17:19:45;2.72;;;1.78;;
70450;SDS011;58869;51.982;4.450;2022-09-17T17:22:14;2.91;;;1.91;;
70450;SDS011;58869;51.982;4.450;2022-09-17T17:24:40;2.76;;;1.80;;
70450;SDS011;58869;51.982;4.450;2022-09-17T17:27:06;3.02;;;1.97;;
70450;SDS011;58869;51.982;4.450;2022-09-17T17:29:33;2.88;;;1.88;;
70450;SDS011;58869;51.982;4.450;2022-09-17T17:31:59;2.95;;;1.90;;
70450;SDS011;58869;51.982;4.450;2022-09-17T17:34:26;3.69;;;2.38;;
70450;SDS011;58869;51.982;4.450;2022-09-17T17:36:51;3.81;;;2.46;;
70450;SDS011;58869;51.982;4.450;2022-09-17T17:39:17;3.27;;;2.11;;
70450;SDS011;58869;51.982;4.450;2022-09-17T17:41:42;3.47;;;2.23;;
70450;SDS011;58869;51.982;4.450;2022-09-17T17:44:09;3.35;;;2.15;;
70450;SDS011;58869;51.982;4.450;2022-09-17T17:46:39;3.38;;;2.16;;
70450;SDS011;58869;51.982;4.450;2022-09-17T17:49:05;3.76;;;2.41;;
70450;SDS011;58869;51.982;4.450;2022-09-17T17:51:31;3.60;;;2.35;;
70450;SDS011;58869;51.982;4.450;2022-09-17T17:53:58;3.32;;;2.19;;
70450;SDS011;58869;51.982;4.450;2022-09-17T17:56:24;3.06;;;2.06;;
70450;SDS011;58869;51.982;4.450;2022-09-17T17:58:53;3.43;;;2.33;;
70450;SDS011;58869;51.982;4.450;2022-09-17T18:01:21;2.90;;;1.94;;
70450;SDS011;58869;51.982;4.450;2022-09-17T18:03:58;2.57;;;1.72;;
70450;SDS011;58869;51.982;4.450;2022-09-17T18:06:26;2.92;;;1.94;;
70450;SDS011;58869;51.982;4.450;2022-09-17T18:08:52;3.01;;;1.97;;
70450;SDS011;58869;51.982;4.450;2022-09-17T18:11:18;2.90;;;1.90;;
70450;SDS011;58869;51.982;4.450;2022-09-17T18:13:44;2.34;;;1.54;;
70450;SDS011;58869;51.982;4.450;2022-09-17T18:16:10;2.87;;;1.91;;
70450;SDS011;58869;51.982;4.450;2022-09-17T18:18:39;2.75;;;1.82;;
70450;SDS011;58869;51.982;4.450;2022-09-17T18:21:07;3.02;;;1.99;;
70450;SDS011;58869;51.982;4.450;2022-09-17T18:23:35;3.18;;;2.11;;
70450;SDS011;58869;51.982;4.450;2022-09-17T18:26:04;3.63;;;2.38;;